Time;durP1;ratioP1;P1;durP2;ratioP2;P2;SDS_P1;SDS_P2;PMS_P1;PMS_P2;Temp;Humidity;BMP_temperature;BMP_pressure;BME280_temperature;BME280_humidity;BME280_pressure;Samples;Min_cycle;Max_cycle;Signal;HPM_P1;HPM_P2
2021/07/19 00:01:22;;;;;;;19.02;11.63;;;;;;;;;;5072200;28;20016;-67
2021/07/19 00:03:48;;;;;;;15.20;10.50;;;;;;;;;;5049554;28;20397;-67
2021/07/19 00:06:14;;;;;;;18.63;11.77;;;;;;;;;;5072273;28;20016;-68
2021/07/19 00:08:40;;;;;;;17.67;11.43;;;;;;;;;;5072204;28;20389;-67
2021/07/19 00:11:07;;;;;;;18.77;11.10;;;;;;;;;;5071721;28;20029;-67
2021/07/19 00:13:33;;;;;;;15.68;10.75;;;;;;;;;;5071748;28;20446;-67
2021/07/19 00:15:59;;;;;;;24.23;11.68;;;;;;;;;;5072166;28;20016;-67
2021/07/19 00:18:25;;;;;;;15.07;10.90;;;;;;;;;;5071822;28;20605;-67
2021/07/19 00:20:51;;;;;;;20.25;10.88;;;;;;;;;;5071495;28;20016;-67
2021/07/19 00:23:17;;;;;;;18.65;11.77;;;;;;;;;;5071575;28;20027;-67
2021/07/19 00:25:43;;;;;;;16.02;11.20;;;;;;;;;;5068579;28;20108;-67
2021/07/19 00:28:09;;;;;;;16.80;10.73;;;;;;;;;;5071745;28;20033;-67
2021/07/19 00:30:37;;;;;;;15.18;11.25;;;;;;;;;;5071758;28;20029;-67
2021/07/19 00:33:05;;;;;;;15.52;10.77;;;;;;;;;;5071750;28;20024;-67
2021/07/19 00:35:32;;;;;;;19.40;11.77;;;;;;;;;;5053629;28;20020;-67
2021/07/19 00:37:58;;;;;;;20.58;11.52;;;;;;;;;;5071622;28;20031;-67
2021/07/19 00:40:26;;;;;;;21.35;11.80;;;;;;;;;;5071750;28;20046;-68
2021/07/19 00:42:52;;;;;;;17.08;10.63;;;;;;;;;;5071697;28;20104;-67
2021/07/19 00:45:28;;;;;;;21.25;11.75;;;;;;;;;;5071578;28;20108;-67
2021/07/19 00:47:55;;;;;;;17.20;11.20;;;;;;;;;;5053566;28;20378;-67
2021/07/19 00:50:22;;;;;;;16.40;10.45;;;;;;;;;;5071426;28;20017;-68
2021/07/19 00:52:48;;;;;;;18.15;11.45;;;;;;;;;;5071286;28;20024;-67
2021/07/19 00:55:19;;;;;;;16.63;11.77;;;;;;;;;;5074887;28;20469;-67
2021/07/19 00:57:48;;;;;;;17.35;11.05;;;;;;;;;;5057668;28;20145;-67
2021/07/19 01:00:14;;;;;;;14.98;10.75;;;;;;;;;;5075057;28;20025;-67
2021/07/19 01:02:43;;;;;;;18.33;11.15;;;;;;;;;;5075007;28;20024;-67
2021/07/19 01:05:09;;;;;;;17.15;11.23;;;;;;;;;;5074951;28;20023;-66
2021/07/19 01:07:37;;;;;;;17.80;11.55;;;;;;;;;;5076241;28;20050;-67
2021/07/19 01:10:08;;;;;;;18.65;10.75;;;;;;;;;;5074870;28;20028;-67
2021/07/19 01:12:34;;;;;;;17.13;10.60;;;;;;;;;;5075074;28;20028;-68
2021/07/19 01:15:00;;;;;;;17.35;11.70;;;;;;;;;;5075213;28;20077;-68
2021/07/19 01:17:26;;;;;;;14.95;10.77;;;;;;;;;;5075163;28;20070;-69
2021/07/19 01:19:54;;;;;;;19.30;11.52;;;;;;;;;;5075239;28;20024;-66
2021/07/19 01:22:38;;;;;;;15.30;11.48;;;;;;;;;;5061277;28;20473;-67
2021/07/19 01:25:23;;;;;;;17.63;11.75;;;;;;;;;;5055442;28;20361;-67
2021/07/19 01:28:08;;;;;;;12.63;10.88;;;;;;;;;;5055153;28;20033;-67
2021/07/19 01:30:36;;;;;;;19.30;12.00;;;;;;;;;;5055145;28;20021;-67
2021/07/19 01:33:03;;;;;;;15.15;11.48;;;;;;;;;;5054024;28;20028;-67
2021/07/19 01:35:31;;;;;;;15.68;11.02;;;;;;;;;;5055116;28;20512;-67
2021/07/19 01:37:57;;;;;;;17.00;10.35;;;;;;;;;;5053474;28;20025;-67
2021/07/19 01:40:23;;;;;;;14.65;10.77;;;;;;;;;;5054853;28;20126;-67
2021/07/19 01:42:50;;;;;;;21.10;11.55;;;;;;;;;;5054793;28;20474;-67
2021/07/19 01:45:16;;;;;;;15.18;10.52;;;;;;;;;;5064144;28;20033;-68
2021/07/19 01:47:42;;;;;;;14.85;10.55;;;;;;;;;;5074090;28;20043;-68
2021/07/19 01:50:09;;;;;;;18.88;10.50;;;;;;;;;;5079243;28;20406;-67
2021/07/19 01:52:36;;;;;;;19.02;10.50;;;;;;;;;;5083480;28;20410;-67
2021/07/19 01:55:03;;;;;;;17.92;11.48;;;;;;;;;;5086293;28;20016;-67
2021/07/19 01:57:30;;;;;;;18.38;11.27;;;;;;;;;;5094706;28;20051;-68
2021/07/19 01:59:58;;;;;;;15.02;11.52;;;;;;;;;;5076356;28;20668;-67
2021/07/19 02:02:25;;;;;;;17.67;11.82;;;;;;;;;;5094739;28;20036;-67
2021/07/19 02:04:51;;;;;;;15.85;10.60;;;;;;;;;;5094325;28;20020;-67
2021/07/19 02:07:21;;;;;;;12.13;9.55;;;;;;;;;;5094301;28;20054;-67
2021/07/19 02:09:48;;;;;;;16.42;10.68;;;;;;;;;;5094575;28;20017;-67
2021/07/19 02:12:14;;;;;;;13.70;10.00;;;;;;;;;;5094456;28;20031;-68
2021/07/19 02:14:42;;;;;;;14.85;11.65;;;;;;;;;;5094486;28;20044;-67
2021/07/19 02:17:08;;;;;;;17.67;11.45;;;;;;;;;;5094385;28;20023;-67
2021/07/19 02:19:36;;;;;;;17.70;12.27;;;;;;;;;;5094323;28;20028;-67
2021/07/19 02:22:03;;;;;;;17.05;11.27;;;;;;;;;;5070245;28;20107;-67
2021/07/19 02:24:30;;;;;;;17.02;11.63;;;;;;;;;;5054027;28;20062;-67
2021/07/19 02:26:57;;;;;;;23.90;11.45;;;;;;;;;;5062145;28;20094;-67
2021/07/19 02:29:24;;;;;;;16.25;11.80;;;;;;;;;;5073476;28;20039;-67
2021/07/19 02:31:50;;;;;;;18.05;11.00;;;;;;;;;;5073894;28;20493;-67
2021/07/19 02:34:20;;;;;;;15.40;10.95;;;;;;;;;;5073648;28;20052;-68
2021/07/19 02:36:46;;;;;;;20.08;10.38;;;;;;;;;;5065611;28;20028;-67
2021/07/19 02:39:13;;;;;;;14.98;9.57;;;;;;;;;;5066494;28;20028;-67
2021/07/19 02:41:39;;;;;;;14.77;10.48;;;;;;;;;;5061162;28;20040;-67
2021/07/19 02:44:06;;;;;;;16.17;9.73;;;;;;;;;;5065120;28;20044;-68
2021/07/19 02:46:33;;;;;;;13.73;8.85;;;;;;;;;;5060938;28;20033;-68
2021/07/19 02:49:00;;;;;;;15.65;9.68;;;;;;;;;;5060390;28;20029;-67
2021/07/19 02:51:27;;;;;;;12.02;9.48;;;;;;;;;;5060928;28;20066;-68
2021/07/19 02:53:55;;;;;;;15.00;9.77;;;;;;;;;;5059804;28;20505;-68
2021/07/19 02:56:21;;;;;;;14.55;9.13;;;;;;;;;;5059744;28;20027;-67
2021/07/19 02:58:48;;;;;;;13.43;9.38;;;;;;;;;;5062181;28;20114;-68
2021/07/19 03:01:16;;;;;;;14.55;8.85;;;;;;;;;;5063681;28;20024;-68
2021/07/19 03:03:44;;;;;;;15.40;10.02;;;;;;;;;;5061891;28;20381;-67
2021/07/19 03:06:12;;;;;;;28.98;9.88;;;;;;;;;;5050172;28;20503;-68
2021/07/19 03:08:39;;;;;;;28.65;10.50;;;;;;;;;;5062284;28;20044;-67
2021/07/19 03:11:07;;;;;;;19.40;10.13;;;;;;;;;;5063103;28;20024;-67
2021/07/19 03:13:34;;;;;;;17.77;9.35;;;;;;;;;;5064218;28;20048;-67
2021/07/19 03:16:01;;;;;;;19.02;9.70;;;;;;;;;;5062415;28;20106;-67
2021/07/19 03:18:27;;;;;;;16.05;8.27;;;;;;;;;;5062267;28;20024;-67
2021/07/19 03:20:54;;;;;;;16.48;9.40;;;;;;;;;;5063443;28;20051;-67
2021/07/19 03:23:27;;;;;;;16.50;9.45;;;;;;;;;;5062472;28;20036;-67
2021/07/19 03:25:54;;;;;;;13.80;8.93;;;;;;;;;;5062426;28;20025;-69
2021/07/19 03:28:21;;;;;;;14.80;8.88;;;;;;;;;;5060705;28;20055;-68
2021/07/19 03:30:49;;;;;;;16.33;9.25;;;;;;;;;;5060527;28;20020;-68
2021/07/19 03:33:15;;;;;;;13.95;8.98;;;;;;;;;;5059344;28;20058;-66
2021/07/19 03:35:41;;;;;;;16.30;8.13;;;;;;;;;;5058819;28;20027;-67
2021/07/19 03:38:08;;;;;;;12.60;8.13;;;;;;;;;;5058601;28;20082;-68
2021/07/19 03:40:35;;;;;;;9.65;6.63;;;;;;;;;;5061220;28;20035;-68
2021/07/19 03:43:01;;;;;;;8.55;5.65;;;;;;;;;;5063024;28;20024;-67
2021/07/19 03:45:28;;;;;;;11.05;5.93;;;;;;;;;;5064263;28;20042;-66
2021/07/19 03:47:55;;;;;;;12.93;6.70;;;;;;;;;;5063222;28;20058;-67
2021/07/19 03:50:22;;;;;;;11.38;6.82;;;;;;;;;;5063151;28;20025;-67
2021/07/19 03:52:48;;;;;;;9.90;5.88;;;;;;;;;;5062652;28;20534;-69
2021/07/19 03:55:15;;;;;;;11.05;6.45;;;;;;;;;;5059632;28;20125;-69
2021/07/19 03:57:41;;;;;;;13.18;5.93;;;;;;;;;;5061361;28;20031;-68
2021/07/19 04:00:09;;;;;;;12.00;6.15;;;;;;;;;;5064504;28;20016;-67
2021/07/19 04:02:36;;;;;;;9.90;6.32;;;;;;;;;;5063208;28;20028;-67
2021/07/19 04:05:05;;;;;;;9.63;6.25;;;;;;;;;;5058638;28;20021;-68
2021/07/19 04:07:32;;;;;;;10.50;6.13;;;;;;;;;;5062681;28;20037;-67
2021/07/19 04:09:58;;;;;;;11.15;7.10;;;;;;;;;;5061747;28;20462;-67
2021/07/19 04:12:25;;;;;;;11.10;6.38;;;;;;;;;;5061761;28;20029;-67
2021/07/19 04:14:51;;;;;;;10.55;6.00;;;;;;;;;;5057319;28;20075;-67
2021/07/19 04:17:17;;;;;;;10.70;6.90;;;;;;;;;;5061115;28;20024;-67
2021/07/19 04:19:45;;;;;;;12.90;7.32;;;;;;;;;;5062727;28;20120;-68
2021/07/19 04:22:14;;;;;;;10.68;6.88;;;;;;;;;;5057860;28;20473;-67
2021/07/19 04:24:40;;;;;;;10.90;7.00;;;;;;;;;;5063811;28;20036;-67
2021/07/19 04:27:06;;;;;;;10.75;7.68;;;;;;;;;;5062599;28;20025;-67
2021/07/19 04:29:32;;;;;;;11.40;6.80;;;;;;;;;;5062640;28;20045;-67
2021/07/19 04:31:59;;;;;;;11.80;6.80;;;;;;;;;;5060464;28;20032;-67
2021/07/19 04:34:29;;;;;;;16.08;7.45;;;;;;;;;;5062658;28;20028;-67
2021/07/19 04:36:59;;;;;;;12.27;7.60;;;;;;;;;;5062711;28;20087;-67
2021/07/19 04:39:25;;;;;;;11.60;7.25;;;;;;;;;;5060923;28;20016;-67
2021/07/19 04:41:51;;;;;;;10.77;7.05;;;;;;;;;;5058478;28;20029;-67
2021/07/19 04:44:17;;;;;;;13.38;7.10;;;;;;;;;;5050366;28;20066;-67
2021/07/19 04:46:43;;;;;;;12.88;7.70;;;;;;;;;;5061379;28;20033;-68
2021/07/19 04:49:09;;;;;;;12.07;7.47;;;;;;;;;;5062059;28;20091;-69
2021/07/19 04:51:36;;;;;;;10.90;6.90;;;;;;;;;;5058202;28;20028;-68
2021/07/19 04:54:03;;;;;;;12.82;6.85;;;;;;;;;;5058182;28;20033;-68
2021/07/19 04:56:31;;;;;;;10.20;6.82;;;;;;;;;;5063440;28;20354;-69
2021/07/19 04:58:59;;;;;;;12.32;6.70;;;;;;;;;;5060573;28;20055;-69
2021/07/19 05:01:27;;;;;;;10.15;7.03;;;;;;;;;;5062430;28;20024;-68
2021/07/19 05:03:54;;;;;;;9.88;7.05;;;;;;;;;;5059962;28;20389;-68
2021/07/19 05:06:22;;;;;;;11.18;7.63;;;;;;;;;;5058653;28;20033;-68
2021/07/19 05:08:49;;;;;;;12.95;7.05;;;;;;;;;;5060512;28;20036;-68
2021/07/19 05:11:16;;;;;;;11.55;6.78;;;;;;;;;;5059554;28;20374;-67
2021/07/19 05:13:43;;;;;;;13.35;7.55;;;;;;;;;;5061934;28;20113;-69
2021/07/19 05:16:11;;;;;;;12.43;7.00;;;;;;;;;;5060062;28;20112;-68
2021/07/19 05:18:37;;;;;;;14.43;6.68;;;;;;;;;;5062948;28;20473;-68
2021/07/19 05:21:03;;;;;;;11.70;7.05;;;;;;;;;;5061130;28;20028;-68
2021/07/19 05:23:29;;;;;;;12.00;6.75;;;;;;;;;;5062519;28;20028;-69
2021/07/19 05:25:56;;;;;;;9.95;7.38;;;;;;;;;;5059155;28;20036;-67
2021/07/19 05:28:22;;;;;;;14.30;7.68;;;;;;;;;;5060146;28;20033;-67
2021/07/19 05:30:52;;;;;;;8.55;6.63;;;;;;;;;;5060481;28;20037;-68
2021/07/19 05:33:20;;;;;;;13.15;6.95;;;;;;;;;;5063644;28;20033;-68
2021/07/19 05:35:46;;;;;;;10.35;7.07;;;;;;;;;;5045250;28;20020;-68
2021/07/19 05:38:12;;;;;;;11.25;6.95;;;;;;;;;;5060193;28;20028;-68
2021/07/19 05:40:39;;;;;;;10.77;6.40;;;;;;;;;;5061134;28;20025;-68
2021/07/19 05:43:05;;;;;;;11.80;6.28;;;;;;;;;;5062606;28;20119;-68
2021/07/19 05:45:32;;;;;;;10.48;7.28;;;;;;;;;;5066945;28;20021;-68
2021/07/19 05:47:58;;;;;;;11.55;7.70;;;;;;;;;;5060433;28;20032;-68
2021/07/19 05:50:25;;;;;;;11.35;6.63;;;;;;;;;;5063769;28;20072;-68
2021/07/19 05:52:51;;;;;;;9.85;6.72;;;;;;;;;;5063514;28;21014;-68
2021/07/19 05:55:18;;;;;;;11.10;7.07;;;;;;;;;;5065320;28;20053;-67
2021/07/19 05:57:45;;;;;;;9.65;6.78;;;;;;;;;;5061919;28;20115;-68
2021/07/19 06:00:14;;;;;;;12.35;6.80;;;;;;;;;;5061414;28;20028;-68
2021/07/19 06:02:40;;;;;;;11.35;7.30;;;;;;;;;;5065166;28;20021;-68
2021/07/19 06:05:06;;;;;;;10.48;7.15;;;;;;;;;;5064049;28;20025;-68
2021/07/19 06:07:33;;;;;;;11.93;6.82;;;;;;;;;;5065134;28;20032;-68
2021/07/19 06:09:59;;;;;;;10.70;7.15;;;;;;;;;;5063405;28;20017;-68
2021/07/19 06:12:25;;;;;;;10.40;7.00;;;;;;;;;;5060692;28;20489;-68
2021/07/19 06:14:51;;;;;;;11.43;6.55;;;;;;;;;;5063255;28;20497;-68
2021/07/19 06:17:17;;;;;;;9.13;6.57;;;;;;;;;;5061945;28;20017;-68
2021/07/19 06:19:43;;;;;;;12.40;7.35;;;;;;;;;;5061840;28;20051;-67
2021/07/19 06:22:10;;;;;;;10.70;6.90;;;;;;;;;;5064451;28;20035;-68
2021/07/19 06:24:40;;;;;;;9.68;6.75;;;;;;;;;;5063603;28;20021;-67
2021/07/19 06:27:09;;;;;;;12.98;7.25;;;;;;;;;;5063161;28;20027;-68
2021/07/19 06:29:35;;;;;;;9.77;7.07;;;;;;;;;;5060718;28;20495;-67
2021/07/19 06:32:02;;;;;;;12.15;7.50;;;;;;;;;;5064541;28;20031;-69
2021/07/19 06:34:31;;;;;;;13.43;7.53;;;;;;;;;;5065409;28;20017;-68
2021/07/19 06:36:57;;;;;;;14.02;7.30;;;;;;;;;;5047739;28;20060;-68
2021/07/19 06:39:23;;;;;;;12.77;7.15;;;;;;;;;;5065344;28;20489;-67
2021/07/19 06:41:49;;;;;;;13.25;7.03;;;;;;;;;;5061468;28;20028;-68
2021/07/19 06:44:15;;;;;;;11.88;6.68;;;;;;;;;;5062770;28;20096;-68
2021/07/19 06:46:41;;;;;;;9.88;6.72;;;;;;;;;;5065580;28;20052;-68
2021/07/19 06:49:07;;;;;;;13.02;7.35;;;;;;;;;;5066326;28;20054;-68
2021/07/19 06:51:33;;;;;;;10.07;6.75;;;;;;;;;;5064990;28;20609;-68
2021/07/19 06:53:59;;;;;;;11.07;7.10;;;;;;;;;;5062742;28;20033;-67
2021/07/19 06:56:25;;;;;;;15.15;7.97;;;;;;;;;;5059373;28;20025;-67
2021/07/19 06:58:51;;;;;;;11.70;7.53;;;;;;;;;;5064073;28;20020;-67
2021/07/19 07:01:17;;;;;;;10.50;7.80;;;;;;;;;;5063421;28;20017;-67
2021/07/19 07:03:44;;;;;;;12.57;7.72;;;;;;;;;;5065523;28;20137;-68
2021/07/19 07:06:10;;;;;;;13.85;7.55;;;;;;;;;;5060964;28;20131;-68
2021/07/19 07:08:36;;;;;;;12.07;7.50;;;;;;;;;;5061339;28;20474;-68
2021/07/19 07:11:02;;;;;;;13.73;8.15;;;;;;;;;;5063516;28;20388;-68
2021/07/19 07:13:28;;;;;;;13.27;7.50;;;;;;;;;;5066506;28;20428;-68
2021/07/19 07:15:54;;;;;;;13.70;8.07;;;;;;;;;;5060627;28;20068;-68
2021/07/19 07:18:20;;;;;;;12.35;8.02;;;;;;;;;;5057451;28;20027;-68
2021/07/19 07:20:46;;;;;;;13.40;7.82;;;;;;;;;;5062779;28;20033;-68
2021/07/19 07:23:12;;;;;;;14.00;7.45;;;;;;;;;;5062888;28;20030;-68
2021/07/19 07:25:38;;;;;;;15.65;8.98;;;;;;;;;;5061911;28;20029;-68
2021/07/19 07:28:04;;;;;;;13.88;8.10;;;;;;;;;;5065286;28;20036;-69
2021/07/19 07:30:30;;;;;;;12.30;8.00;;;;;;;;;;5063023;28;20040;-68
2021/07/19 07:32:56;;;;;;;10.63;6.78;;;;;;;;;;5064251;28;20039;-68
2021/07/19 07:35:22;;;;;;;14.32;7.75;;;;;;;;;;5063201;28;20021;-68
2021/07/19 07:37:48;;;;;;;12.02;7.97;;;;;;;;;;5062189;28;20021;-68
2021/07/19 07:40:16;;;;;;;11.57;7.32;;;;;;;;;;5064296;28;20099;-68
2021/07/19 07:42:42;;;;;;;10.07;7.20;;;;;;;;;;5061076;28;20025;-68
2021/07/19 07:45:09;;;;;;;11.35;8.10;;;;;;;;;;5064176;28;20109;-68
2021/07/19 07:47:36;;;;;;;10.95;6.85;;;;;;;;;;5063380;28;20033;-68
2021/07/19 07:50:03;;;;;;;10.20;7.00;;;;;;;;;;5061807;28;20020;-68
2021/07/19 07:52:29;;;;;;;9.82;6.70;;;;;;;;;;5063319;28;20032;-68
2021/07/19 07:54:55;;;;;;;11.02;6.50;;;;;;;;;;5058993;28;20025;-68
2021/07/19 07:57:21;;;;;;;9.55;6.75;;;;;;;;;;5064560;28;20086;-68
2021/07/19 07:59:47;;;;;;;11.50;7.78;;;;;;;;;;5067581;28;20050;-68
2021/07/19 08:02:13;;;;;;;14.30;6.55;;;;;;;;;;5056337;28;20029;-68
2021/07/19 08:04:39;;;;;;;11.75;7.35;;;;;;;;;;5060572;28;20050;-69
2021/07/19 08:07:06;;;;;;;11.90;7.20;;;;;;;;;;5051984;28;20029;-69
2021/07/19 08:09:32;;;;;;;8.98;6.38;;;;;;;;;;5050567;28;20359;-69
2021/07/19 08:11:58;;;;;;;10.32;6.65;;;;;;;;;;5052185;28;20032;-68
2021/07/19 08:14:25;;;;;;;8.80;6.20;;;;;;;;;;5051926;28;20052;-69
2021/07/19 08:16:51;;;;;;;12.10;6.75;;;;;;;;;;5068610;28;20040;-68
2021/07/19 08:19:17;;;;;;;11.82;7.35;;;;;;;;;;5051870;28;20540;-69
2021/07/19 08:21:44;;;;;;;9.23;6.22;;;;;;;;;;5050287;28;20079;-68
2021/07/19 08:24:10;;;;;;;12.80;7.40;;;;;;;;;;5051761;28;20481;-69
2021/07/19 08:26:37;;;;;;;10.02;6.78;;;;;;;;;;5050318;28;20029;-68
2021/07/19 08:29:05;;;;;;;8.80;6.40;;;;;;;;;;5051491;28;20033;-69
2021/07/19 08:31:31;;;;;;;11.80;7.40;;;;;;;;;;5050403;28;20041;-68
2021/07/19 08:33:57;;;;;;;11.38;7.35;;;;;;;;;;5051593;28;20543;-67
2021/07/19 08:36:24;;;;;;;10.30;6.60;;;;;;;;;;5067627;28;20028;-67
2021/07/19 08:38:50;;;;;;;12.90;6.38;;;;;;;;;;5071412;28;20390;-67
2021/07/19 08:41:16;;;;;;;11.07;7.30;;;;;;;;;;5053267;28;20028;-67
2021/07/19 08:43:43;;;;;;;11.60;7.32;;;;;;;;;;5070466;28;20035;-67
2021/07/19 08:46:10;;;;;;;12.20;6.68;;;;;;;;;;5052816;28;20031;-67
2021/07/19 08:48:36;;;;;;;8.73;6.45;;;;;;;;;;5053328;28;20070;-67
2021/07/19 08:51:03;;;;;;;11.07;6.90;;;;;;;;;;5071578;28;20092;-67
2021/07/19 08:53:31;;;;;;;12.70;6.93;;;;;;;;;;5049824;28;20037;-67
2021/07/19 08:55:58;;;;;;;13.93;7.32;;;;;;;;;;5051378;28;20094;-68
2021/07/19 08:58:24;;;;;;;10.60;7.28;;;;;;;;;;5051383;28;20371;-67
2021/07/19 09:00:51;;;;;;;11.32;6.78;;;;;;;;;;5051426;28;20026;-68
2021/07/19 09:03:17;;;;;;;11.20;7.07;;;;;;;;;;5051485;28;20020;-67
2021/07/19 09:05:43;;;;;;;15.98;7.55;;;;;;;;;;5073028;28;20018;-68
2021/07/19 09:08:09;;;;;;;13.60;7.30;;;;;;;;;;5071064;28;20032;-68
2021/07/19 09:10:35;;;;;;;11.82;7.38;;;;;;;;;;5080074;28;20028;-68
2021/07/19 09:13:02;;;;;;;14.95;7.03;;;;;;;;;;5091283;28;20050;-68
2021/07/19 09:15:32;;;;;;;10.98;7.25;;;;;;;;;;5075266;28;20027;-68
2021/07/19 09:17:59;;;;;;;12.23;7.15;;;;;;;;;;5077363;28;20031;-68
2021/07/19 09:20:34;;;;;;;12.20;7.82;;;;;;;;;;5077459;28;20016;-68
2021/07/19 09:23:00;;;;;;;11.70;6.70;;;;;;;;;;5095704;28;20016;-68
2021/07/19 09:25:26;;;;;;;13.57;6.97;;;;;;;;;;5077325;28;20020;-67
2021/07/19 09:28:11;;;;;;;12.27;7.60;;;;;;;;;;5095357;28;20035;-68
2021/07/19 09:30:43;;;;;;;10.00;6.93;;;;;;;;;;5095319;28;20130;-68
2021/07/19 09:33:10;;;;;;;12.68;7.15;;;;;;;;;;5085494;28;20021;-68
2021/07/19 09:35:41;;;;;;;14.02;7.15;;;;;;;;;;5077329;28;20040;-68
2021/07/19 09:38:08;;;;;;;12.20;7.53;;;;;;;;;;5074234;28;20485;-67
2021/07/19 09:40:35;;;;;;;10.75;6.57;;;;;;;;;;5074889;28;20111;-68
2021/07/19 09:43:11;;;;;;;10.93;7.45;;;;;;;;;;5074539;28;20378;-69
2021/07/19 09:45:38;;;;;;;13.00;6.93;;;;;;;;;;5074687;28;20024;-68
2021/07/19 09:48:06;;;;;;;11.13;7.25;;;;;;;;;;5074756;28;20043;-68
2021/07/19 09:50:43;;;;;;;12.20;7.55;;;;;;;;;;5056597;28;20078;-68
2021/07/19 09:53:09;;;;;;;13.15;6.72;;;;;;;;;;5074446;28;20025;-68
2021/07/19 09:55:36;;;;;;;10.50;7.60;;;;;;;;;;5074546;28;20024;-69
2021/07/19 09:58:03;;;;;;;17.58;7.30;;;;;;;;;;5074550;28;20073;-69
2021/07/19 10:00:30;;;;;;;9.38;7.13;;;;;;;;;;5074348;28;20017;-68
2021/07/19 10:02:56;;;;;;;12.70;7.07;;;;;;;;;;5074469;28;20036;-68
2021/07/19 10:05:32;;;;;;;10.75;6.88;;;;;;;;;;5074268;28;20105;-68
2021/07/19 10:08:01;;;;;;;13.70;7.00;;;;;;;;;;5056220;28;20438;-69
2021/07/19 10:10:39;;;;;;;9.98;7.30;;;;;;;;;;5074046;28;20035;-69
2021/07/19 10:13:06;;;;;;;11.43;7.38;;;;;;;;;;5052650;28;20038;-68
2021/07/19 10:15:33;;;;;;;10.68;6.47;;;;;;;;;;5054032;28;20060;-68
2021/07/19 10:17:59;;;;;;;9.70;6.25;;;;;;;;;;5054255;28;20189;-68
2021/07/19 10:20:26;;;;;;;10.40;6.82;;;;;;;;;;5054142;28;20048;-68
2021/07/19 10:22:52;;;;;;;14.77;7.20;;;;;;;;;;5054178;28;20373;-69
2021/07/19 10:25:18;;;;;;;15.48;7.05;;;;;;;;;;5054079;28;20600;-69
2021/07/19 10:27:46;;;;;;;9.18;7.20;;;;;;;;;;5052835;28;20033;-69
2021/07/19 10:30:12;;;;;;;8.80;6.35;;;;;;;;;;5054293;28;20032;-69
2021/07/19 10:32:38;;;;;;;11.05;6.88;;;;;;;;;;5053991;28;20059;-69
2021/07/19 10:35:06;;;;;;;12.60;7.10;;;;;;;;;;5052590;28;20021;-69
2021/07/19 10:37:34;;;;;;;11.65;6.95;;;;;;;;;;5053649;28;20129;-68
2021/07/19 10:40:03;;;;;;;14.38;7.25;;;;;;;;;;5053739;28;20025;-68
2021/07/19 10:42:33;;;;;;;16.33;9.45;;;;;;;;;;5053462;28;20427;-68
2021/07/19 10:45:06;;;;;;;15.05;8.55;;;;;;;;;;5053501;28;20017;-68
2021/07/19 10:47:32;;;;;;;16.90;9.27;;;;;;;;;;5051866;28;20029;-68
2021/07/19 10:50:04;;;;;;;14.02;8.15;;;;;;;;;;5054556;28;20375;-68
2021/07/19 10:52:30;;;;;;;16.08;9.02;;;;;;;;;;5053149;28;20017;-68
2021/07/19 10:54:56;;;;;;;13.65;8.15;;;;;;;;;;5051593;28;20025;-69
2021/07/19 10:57:33;;;;;;;17.35;8.35;;;;;;;;;;5052912;28;20013;-68
2021/07/19 11:00:02;;;;;;;13.20;7.97;;;;;;;;;;5059174;28;20036;-68
2021/07/19 11:02:28;;;;;;;14.80;8.70;;;;;;;;;;5056096;28;20025;-68
2021/07/19 11:04:54;;;;;;;13.50;8.73;;;;;;;;;;5052060;28;20032;-68
2021/07/19 11:07:22;;;;;;;14.18;8.68;;;;;;;;;;5053134;28;20473;-67
2021/07/19 11:09:48;;;;;;;15.73;9.57;;;;;;;;;;5053301;28;20568;-68
2021/07/19 11:12:18;;;;;;;15.23;8.40;;;;;;;;;;5052918;28;20023;-67
2021/07/19 11:14:58;;;;;;;13.90;8.50;;;;;;;;;;5051554;28;20080;-67
2021/07/19 11:17:27;;;;;;;15.57;8.88;;;;;;;;;;5052985;28;20059;-67
2021/07/19 11:19:56;;;;;;;12.00;7.97;;;;;;;;;;5053027;28;20110;-67
2021/07/19 11:22:24;;;;;;;15.60;8.70;;;;;;;;;;5051606;28;20489;-67
2021/07/19 11:24:51;;;;;;;13.68;8.70;;;;;;;;;;5052805;28;20032;-67
2021/07/19 11:27:20;;;;;;;12.27;8.07;;;;;;;;;;5052847;28;20025;-67
2021/07/19 11:29:46;;;;;;;15.45;8.73;;;;;;;;;;5052880;28;20117;-67
2021/07/19 11:32:19;;;;;;;11.82;7.72;;;;;;;;;;5052692;28;20546;-67
2021/07/19 11:34:49;;;;;;;13.82;8.45;;;;;;;;;;5051288;28;20678;-68
2021/07/19 11:37:17;;;;;;;12.07;7.53;;;;;;;;;;5052493;28;20013;-69
2021/07/19 11:39:51;;;;;;;15.25;8.77;;;;;;;;;;5050190;28;20047;-67
2021/07/19 11:42:27;;;;;;;14.20;7.80;;;;;;;;;;5047296;28;20022;-68
2021/07/19 11:45:00;;;;;;;13.70;7.80;;;;;;;;;;5031289;28;20026;-69
2021/07/19 11:47:26;;;;;;;11.80;7.72;;;;;;;;;;5031325;28;20021;-69
2021/07/19 11:49:59;;;;;;;14.82;7.55;;;;;;;;;;5032148;28;20079;-69
2021/07/19 11:52:25;;;;;;;9.70;7.13;;;;;;;;;;5032525;28;20017;-68
2021/07/19 11:54:52;;;;;;;13.40;7.63;;;;;;;;;;5045670;28;20020;-68
2021/07/19 11:57:18;;;;;;;11.73;7.53;;;;;;;;;;5052326;28;20025;-69
2021/07/19 11:59:44;;;;;;;13.65;7.43;;;;;;;;;;5052027;28;20013;-68
2021/07/19 12:02:10;;;;;;;12.52;7.20;;;;;;;;;;5052037;28;20029;-68
2021/07/19 12:04:40;;;;;;;12.32;6.97;;;;;;;;;;5050711;28;20059;-69
2021/07/19 12:07:07;;;;;;;11.00;7.50;;;;;;;;;;5051927;28;20432;-67
2021/07/19 12:09:34;;;;;;;9.23;6.85;;;;;;;;;;5052261;28;20028;-68
2021/07/19 12:12:02;;;;;;;9.95;6.57;;;;;;;;;;5050670;28;20021;-68
2021/07/19 12:14:28;;;;;;;12.93;7.45;;;;;;;;;;5066161;28;20044;-67
2021/07/19 12:16:54;;;;;;;26.02;9.88;;;;;;;;;;5071842;28;20052;-67
2021/07/19 12:19:21;;;;;;;40.65;10.18;;;;;;;;;;5070699;28;20025;-67
2021/07/19 12:21:47;;;;;;;13.73;9.63;;;;;;;;;;5072081;28;20016;-67
2021/07/19 12:24:14;;;;;;;15.95;9.15;;;;;;;;;;5071944;28;20107;-67
2021/07/19 12:26:48;;;;;;;14.05;9.60;;;;;;;;;;5053762;28;20093;-67
2021/07/19 12:29:15;;;;;;;11.32;9.32;;;;;;;;;;5038035;28;20037;-67
2021/07/19 12:31:44;;;;;;;13.48;9.65;;;;;;;;;;5030686;28;20017;-66
2021/07/19 12:34:17;;;;;;;13.60;10.20;;;;;;;;;;5046619;28;20434;-67
2021/07/19 12:36:52;;;;;;;15.55;10.52;;;;;;;;;;5031780;28;20490;-67
2021/07/19 12:39:23;;;;;;;17.95;11.18;;;;;;;;;;5031755;28;20056;-67
2021/07/19 12:41:50;;;;;;;14.63;10.60;;;;;;;;;;5031828;28;20363;-67
2021/07/19 12:44:18;;;;;;;16.67;11.40;;;;;;;;;;5030157;28;20026;-67
2021/07/19 12:46:45;;;;;;;15.95;10.95;;;;;;;;;;5032830;28;20057;-67
2021/07/19 12:49:11;;;;;;;17.13;11.23;;;;;;;;;;5037693;28;20029;-66
2021/07/19 12:51:39;;;;;;;15.13;11.50;;;;;;;;;;5035865;28;20032;-67
2021/07/19 12:54:06;;;;;;;16.88;11.90;;;;;;;;;;5043200;28;20052;-67
2021/07/19 12:56:33;;;;;;;15.88;11.07;;;;;;;;;;5044936;28;20432;-67
2021/07/19 12:59:00;;;;;;;15.30;9.27;;;;;;;;;;5047428;28;20029;-67
2021/07/19 13:01:36;;;;;;;12.80;8.23;;;;;;;;;;5038177;28;20079;-66
2021/07/19 13:04:09;;;;;;;11.80;9.02;;;;;;;;;;5051368;28;20063;-67
2021/07/19 13:06:36;;;;;;;13.05;9.50;;;;;;;;;;5051455;28;20021;-66
2021/07/19 13:09:03;;;;;;;17.50;10.43;;;;;;;;;;5051072;28;20044;-67
2021/07/19 13:11:39;;;;;;;18.67;10.52;;;;;;;;;;5051375;28;20508;-67
2021/07/19 13:14:09;;;;;;;16.15;10.38;;;;;;;;;;5063551;28;20509;-68
2021/07/19 13:16:36;;;;;;;18.55;9.85;;;;;;;;;;5071222;28;20021;-67
2021/07/19 13:19:02;;;;;;;16.55;9.15;;;;;;;;;;5070881;28;20343;-67
2021/07/19 13:21:28;;;;;;;14.90;9.57;;;;;;;;;;5070738;28;20075;-67
2021/07/19 13:23:54;;;;;;;14.10;8.82;;;;;;;;;;5070932;28;20024;-67
2021/07/19 13:26:20;;;;;;;18.13;9.15;;;;;;;;;;5071072;28;20100;-67
2021/07/19 13:28:46;;;;;;;12.70;9.57;;;;;;;;;;5052979;28;20052;-67
2021/07/19 13:31:12;;;;;;;16.00;9.98;;;;;;;;;;5071162;28;20017;-66
2021/07/19 13:33:45;;;;;;;13.98;9.50;;;;;;;;;;5052806;28;20074;-67
2021/07/19 13:36:12;;;;;;;16.27;10.05;;;;;;;;;;5071120;28;20020;-67
2021/07/19 13:38:38;;;;;;;15.20;10.45;;;;;;;;;;5071116;28;20024;-67
2021/07/19 13:41:04;;;;;;;17.73;11.02;;;;;;;;;;5071062;28;20036;-67
2021/07/19 13:43:35;;;;;;;13.60;10.60;;;;;;;;;;5071008;28;20099;-67
2021/07/19 13:46:01;;;;;;;15.60;10.68;;;;;;;;;;5070932;28;20074;-66
2021/07/19 13:48:27;;;;;;;16.38;10.55;;;;;;;;;;5070273;28;20066;-67
2021/07/19 13:50:53;;;;;;;15.98;10.52;;;;;;;;;;5070451;28;20027;-67
2021/07/19 13:53:20;;;;;;;17.67;11.57;;;;;;;;;;5070991;28;20601;-67
2021/07/19 13:55:53;;;;;;;14.10;10.45;;;;;;;;;;5071097;28;20059;-66
2021/07/19 13:58:19;;;;;;;15.50;10.52;;;;;;;;;;5069294;28;20016;-67
2021/07/19 14:00:46;;;;;;;18.40;12.15;;;;;;;;;;5070702;28;20091;-67
2021/07/19 14:03:12;;;;;;;16.33;11.00;;;;;;;;;;5073499;28;20028;-66
2021/07/19 14:05:41;;;;;;;15.50;10.35;;;;;;;;;;5056389;28;20024;-67
2021/07/19 14:08:07;;;;;;;13.18;8.65;;;;;;;;;;5074239;28;20086;-66
2021/07/19 14:10:33;;;;;;;22.13;8.50;;;;;;;;;;5056338;28;20095;-66
2021/07/19 14:12:59;;;;;;;11.57;8.55;;;;;;;;;;5055979;28;20055;-67
2021/07/19 14:15:25;;;;;;;14.65;8.35;;;;;;;;;;5074243;28;20099;-67
2021/07/19 14:17:51;;;;;;;13.05;7.95;;;;;;;;;;5074005;28;20413;-66
2021/07/19 14:20:17;;;;;;;10.98;7.93;;;;;;;;;;5074067;28;20028;-67
2021/07/19 14:22:43;;;;;;;14.88;7.93;;;;;;;;;;5073938;28;20155;-66
2021/07/19 14:25:10;;;;;;;11.70;7.07;;;;;;;;;;5073827;28;20508;-67
2021/07/19 14:27:36;;;;;;;11.95;7.68;;;;;;;;;;5073699;28;20027;-67
2021/07/19 14:30:06;;;;;;;9.40;7.57;;;;;;;;;;5074039;28;20090;-67